sensor_id;sensor_type;location;lat;lon;timestamp;P1;durP1;ratioP1;P2;durP2;ratioP2
37645;SDS011;23489;49.600;6.138;2023-12-20T00:00:16;3.10;;;2.30;;
37645;SDS011;23489;49.600;6.138;2023-12-20T00:02:42;2.53;;;2.10;;
37645;SDS011;23489;49.600;6.138;2023-12-20T00:05:12;2.38;;;2.17;;
37645;SDS011;23489;49.600;6.138;2023-12-20T00:07:40;2.92;;;2.00;;
37645;SDS011;23489;49.600;6.138;2023-12-20T00:10:06;2.23;;;2.00;;
37645;SDS011;23489;49.600;6.138;2023-12-20T00:12:32;2.80;;;2.13;;
37645;SDS011;23489;49.600;6.138;2023-12-20T00:14:58;2.40;;;2.20;;
37645;SDS011;23489;49.600;6.138;2023-12-20T00:17:23;2.35;;;2.08;;
37645;SDS011;23489;49.600;6.138;2023-12-20T00:19:49;2.40;;;2.03;;
37645;SDS011;23489;49.600;6.138;2023-12-20T00:22:15;2.30;;;2.10;;
37645;SDS011;23489;49.600;6.138;2023-12-20T00:24:40;2.10;;;1.90;;
37645;SDS011;23489;49.600;6.138;2023-12-20T00:27:06;2.10;;;1.83;;
37645;SDS011;23489;49.600;6.138;2023-12-20T00:29:32;2.30;;;2.10;;
37645;SDS011;23489;49.600;6.138;2023-12-20T00:31:58;2.10;;;1.90;;
37645;SDS011;23489;49.600;6.138;2023-12-20T00:34:23;2.20;;;2.00;;
37645;SDS011;23489;49.600;6.138;2023-12-20T00:36:49;2.28;;;1.98;;
37645;SDS011;23489;49.600;6.138;2023-12-20T00:39:15;2.30;;;2.00;;
37645;SDS011;23489;49.600;6.138;2023-12-20T00:41:40;2.40;;;2.00;;
37645;SDS011;23489;49.600;6.138;2023-12-20T00:44:06;2.30;;;2.10;;
37645;SDS011;23489;49.600;6.138;2023-12-20T00:46:32;2.30;;;2.10;;
37645;SDS011;23489;49.600;6.138;2023-12-20T00:48:57;2.80;;;2.50;;
37645;SDS011;23489;49.600;6.138;2023-12-20T00:51:23;2.83;;;2.40;;
37645;SDS011;23489;49.600;6.138;2023-12-20T00:53:49;2.70;;;2.50;;
37645;SDS011;23489;49.600;6.138;2023-12-20T00:56:15;3.22;;;2.80;;
37645;SDS011;23489;49.600;6.138;2023-12-20T00:58:41;4.05;;;2.80;;
37645;SDS011;23489;49.600;6.138;2023-12-20T01:01:06;2.97;;;2.70;;
37645;SDS011;23489;49.600;6.138;2023-12-20T01:03:32;2.58;;;2.20;;
37645;SDS011;23489;49.600;6.138;2023-12-20T01:05:58;3.30;;;2.40;;
37645;SDS011;23489;49.600;6.138;2023-12-20T01:08:23;2.45;;;2.20;;
37645;SDS011;23489;49.600;6.138;2023-12-20T01:10:49;2.85;;;2.10;;
37645;SDS011;23489;49.600;6.138;2023-12-20T01:13:14;2.67;;;2.30;;
37645;SDS011;23489;49.600;6.138;2023-12-20T01:15:40;2.53;;;2.20;;
37645;SDS011;23489;49.600;6.138;2023-12-20T01:18:06;3.28;;;2.60;;
37645;SDS011;23489;49.600;6.138;2023-12-20T01:20:32;3.10;;;2.60;;
37645;SDS011;23489;49.600;6.138;2023-12-20T01:22:58;3.03;;;2.40;;
37645;SDS011;23489;49.600;6.138;2023-12-20T01:25:23;2.47;;;2.28;;
37645;SDS011;23489;49.600;6.138;2023-12-20T01:27:49;4.07;;;2.83;;
37645;SDS011;23489;49.600;6.138;2023-12-20T01:30:15;2.30;;;2.10;;
37645;SDS011;23489;49.600;6.138;2023-12-20T01:32:41;2.85;;;2.55;;
37645;SDS011;23489;49.600;6.138;2023-12-20T01:35:06;3.45;;;2.45;;
37645;SDS011;23489;49.600;6.138;2023-12-20T01:37:32;3.25;;;2.50;;
37645;SDS011;23489;49.600;6.138;2023-12-20T01:39:58;3.38;;;2.80;;
37645;SDS011;23489;49.600;6.138;2023-12-20T01:42:23;3.10;;;2.80;;
37645;SDS011;23489;49.600;6.138;2023-12-20T01:44:49;3.30;;;2.50;;
37645;SDS011;23489;49.600;6.138;2023-12-20T01:47:15;3.75;;;2.67;;
37645;SDS011;23489;49.600;6.138;2023-12-20T01:49:41;3.45;;;2.55;;
37645;SDS011;23489;49.600;6.138;2023-12-20T01:52:07;4.10;;;3.13;;
37645;SDS011;23489;49.600;6.138;2023-12-20T01:54:33;3.58;;;2.92;;
37645;SDS011;23489;49.600;6.138;2023-12-20T01:57:00;3.70;;;2.65;;
37645;SDS011;23489;49.600;6.138;2023-12-20T01:59:26;3.63;;;2.90;;
37645;SDS011;23489;49.600;6.138;2023-12-20T02:01:54;4.25;;;3.05;;
37645;SDS011;23489;49.600;6.138;2023-12-20T02:04:19;2.70;;;2.17;;
37645;SDS011;23489;49.600;6.138;2023-12-20T02:06:45;3.92;;;2.80;;
37645;SDS011;23489;49.600;6.138;2023-12-20T02:28:48;3.75;;;2.85;;
37645;SDS011;23489;49.600;6.138;2023-12-20T02:31:13;4.80;;;4.30;;
37645;SDS011;23489;49.600;6.138;2023-12-20T02:33:39;6.03;;;4.60;;
37645;SDS011;23489;49.600;6.138;2023-12-20T02:36:07;5.10;;;4.30;;
37645;SDS011;23489;49.600;6.138;2023-12-20T02:38:32;5.60;;;4.30;;
37645;SDS011;23489;49.600;6.138;2023-12-20T02:40:59;4.93;;;4.20;;
37645;SDS011;23489;49.600;6.138;2023-12-20T02:43:25;4.78;;;4.20;;
37645;SDS011;23489;49.600;6.138;2023-12-20T02:45:50;4.67;;;4.10;;
37645;SDS011;23489;49.600;6.138;2023-12-20T02:48:16;5.22;;;3.40;;
37645;SDS011;23489;49.600;6.138;2023-12-20T02:50:42;3.85;;;3.30;;
37645;SDS011;23489;49.600;6.138;2023-12-20T02:53:08;4.05;;;3.30;;
37645;SDS011;23489;49.600;6.138;2023-12-20T02:57:59;3.90;;;3.00;;
37645;SDS011;23489;49.600;6.138;2023-12-20T03:12:33;3.72;;;2.53;;
37645;SDS011;23489;49.600;6.138;2023-12-20T03:14:59;10.27;;;2.70;;
37645;SDS011;23489;49.600;6.138;2023-12-20T03:17:24;5.20;;;2.40;;
37645;SDS011;23489;49.600;6.138;2023-12-20T03:19:50;6.13;;;2.50;;
37645;SDS011;23489;49.600;6.138;2023-12-20T03:22:16;4.90;;;2.65;;
37645;SDS011;23489;49.600;6.138;2023-12-20T03:24:41;6.88;;;2.15;;
37645;SDS011;23489;49.600;6.138;2023-12-20T03:27:07;4.22;;;2.00;;
37645;SDS011;23489;49.600;6.138;2023-12-20T03:29:32;3.05;;;1.67;;
37645;SDS011;23489;49.600;6.138;2023-12-20T03:31:58;2.83;;;1.70;;
37645;SDS011;23489;49.600;6.138;2023-12-20T03:34:24;7.10;;;1.70;;
37645;SDS011;23489;49.600;6.138;2023-12-20T03:36:49;4.18;;;2.20;;
37645;SDS011;23489;49.600;6.138;2023-12-20T03:39:15;2.95;;;1.70;;
37645;SDS011;23489;49.600;6.138;2023-12-20T03:41:40;4.25;;;2.22;;
37645;SDS011;23489;49.600;6.138;2023-12-20T03:44:06;6.07;;;1.70;;
37645;SDS011;23489;49.600;6.138;2023-12-20T03:46:32;8.00;;;1.92;;
37645;SDS011;23489;49.600;6.138;2023-12-20T03:48:57;7.55;;;1.77;;
37645;SDS011;23489;49.600;6.138;2023-12-20T03:51:23;7.10;;;2.17;;
37645;SDS011;23489;49.600;6.138;2023-12-20T03:53:48;4.32;;;2.17;;
37645;SDS011;23489;49.600;6.138;2023-12-20T03:56:14;3.33;;;1.83;;
37645;SDS011;23489;49.600;6.138;2023-12-20T03:58:40;8.20;;;2.13;;
37645;SDS011;23489;49.600;6.138;2023-12-20T04:01:11;5.80;;;2.22;;
37645;SDS011;23489;49.600;6.138;2023-12-20T04:03:37;5.95;;;2.13;;
37645;SDS011;23489;49.600;6.138;2023-12-20T04:06:03;3.10;;;1.75;;
37645;SDS011;23489;49.600;6.138;2023-12-20T04:08:29;7.38;;;2.20;;
37645;SDS011;23489;49.600;6.138;2023-12-20T04:13:20;7.72;;;2.70;;
37645;SDS011;23489;49.600;6.138;2023-12-20T04:15:46;7.67;;;2.70;;
37645;SDS011;23489;49.600;6.138;2023-12-20T04:18:11;5.25;;;2.42;;
37645;SDS011;23489;49.600;6.138;2023-12-20T04:20:37;8.10;;;2.87;;
37645;SDS011;23489;49.600;6.138;2023-12-20T04:23:03;6.72;;;2.63;;
37645;SDS011;23489;49.600;6.138;2023-12-20T04:25:29;5.13;;;2.40;;
37645;SDS011;23489;49.600;6.138;2023-12-20T04:27:54;9.80;;;2.90;;
37645;SDS011;23489;49.600;6.138;2023-12-20T04:30:20;6.53;;;2.73;;
37645;SDS011;23489;49.600;6.138;2023-12-20T04:32:45;5.72;;;2.55;;
37645;SDS011;23489;49.600;6.138;2023-12-20T04:35:11;5.97;;;2.70;;
37645;SDS011;23489;49.600;6.138;2023-12-20T04:37:37;6.20;;;2.60;;
37645;SDS011;23489;49.600;6.138;2023-12-20T04:40:02;8.55;;;3.92;;
37645;SDS011;23489;49.600;6.138;2023-12-20T04:42:30;7.57;;;2.80;;
37645;SDS011;23489;49.600;6.138;2023-12-20T04:44:56;7.20;;;2.83;;
37645;SDS011;23489;49.600;6.138;2023-12-20T04:47:21;5.63;;;2.30;;
37645;SDS011;23489;49.600;6.138;2023-12-20T04:49:47;6.75;;;2.63;;
37645;SDS011;23489;49.600;6.138;2023-12-20T04:52:14;5.20;;;2.60;;
37645;SDS011;23489;49.600;6.138;2023-12-20T04:54:39;5.00;;;2.40;;
37645;SDS011;23489;49.600;6.138;2023-12-20T04:57:05;7.68;;;2.55;;
37645;SDS011;23489;49.600;6.138;2023-12-20T04:59:31;6.50;;;2.30;;
37645;SDS011;23489;49.600;6.138;2023-12-20T05:01:56;10.38;;;2.33;;
37645;SDS011;23489;49.600;6.138;2023-12-20T05:04:22;3.85;;;1.92;;
37645;SDS011;23489;49.600;6.138;2023-12-20T05:06:48;4.70;;;2.10;;
37645;SDS011;23489;49.600;6.138;2023-12-20T05:09:15;3.45;;;1.83;;
37645;SDS011;23489;49.600;6.138;2023-12-20T05:11:40;5.13;;;1.92;;
37645;SDS011;23489;49.600;6.138;2023-12-20T05:14:06;5.45;;;1.77;;
37645;SDS011;23489;49.600;6.138;2023-12-20T05:16:32;3.58;;;1.95;;
37645;SDS011;23489;49.600;6.138;2023-12-20T05:18:58;4.50;;;1.95;;
37645;SDS011;23489;49.600;6.138;2023-12-20T05:21:26;6.50;;;2.40;;
37645;SDS011;23489;49.600;6.138;2023-12-20T05:23:51;6.40;;;2.25;;
37645;SDS011;23489;49.600;6.138;2023-12-20T05:26:17;4.30;;;2.13;;
37645;SDS011;23489;49.600;6.138;2023-12-20T05:28:43;6.10;;;2.40;;
37645;SDS011;23489;49.600;6.138;2023-12-20T05:31:09;4.63;;;2.22;;
37645;SDS011;23489;49.600;6.138;2023-12-20T05:33:34;6.85;;;2.38;;
37645;SDS011;23489;49.600;6.138;2023-12-20T05:36:00;3.75;;;2.03;;
37645;SDS011;23489;49.600;6.138;2023-12-20T05:38:26;10.57;;;3.03;;
37645;SDS011;23489;49.600;6.138;2023-12-20T05:40:51;7.35;;;2.30;;
37645;SDS011;23489;49.600;6.138;2023-12-20T05:43:17;7.03;;;2.40;;
37645;SDS011;23489;49.600;6.138;2023-12-20T05:45:43;6.30;;;2.17;;
37645;SDS011;23489;49.600;6.138;2023-12-20T05:48:08;9.48;;;2.60;;
37645;SDS011;23489;49.600;6.138;2023-12-20T05:50:34;7.75;;;2.03;;
37645;SDS011;23489;49.600;6.138;2023-12-20T05:53:00;9.48;;;3.00;;
37645;SDS011;23489;49.600;6.138;2023-12-20T05:55:26;7.50;;;3.10;;
37645;SDS011;23489;49.600;6.138;2023-12-20T05:57:51;7.07;;;2.80;;
37645;SDS011;23489;49.600;6.138;2023-12-20T06:00:17;3.70;;;2.47;;
37645;SDS011;23489;49.600;6.138;2023-12-20T06:02:43;9.25;;;3.10;;
37645;SDS011;23489;49.600;6.138;2023-12-20T06:05:09;6.07;;;2.70;;
37645;SDS011;23489;49.600;6.138;2023-12-20T06:07:34;9.68;;;3.38;;
37645;SDS011;23489;49.600;6.138;2023-12-20T06:10:00;6.97;;;2.88;;
37645;SDS011;23489;49.600;6.138;2023-12-20T06:12:26;8.18;;;3.25;;
37645;SDS011;23489;49.600;6.138;2023-12-20T06:17:19;8.90;;;3.05;;
37645;SDS011;23489;49.600;6.138;2023-12-20T06:19:45;12.45;;;3.85;;
37645;SDS011;23489;49.600;6.138;2023-12-20T06:22:13;8.20;;;3.45;;
37645;SDS011;23489;49.600;6.138;2023-12-20T06:24:39;6.82;;;4.15;;
37645;SDS011;23489;49.600;6.138;2023-12-20T06:27:05;10.27;;;3.75;;
37645;SDS011;23489;49.600;6.138;2023-12-20T06:29:31;8.80;;;4.25;;
37645;SDS011;23489;49.600;6.138;2023-12-20T06:31:57;10.27;;;4.32;;
37645;SDS011;23489;49.600;6.138;2023-12-20T06:34:22;8.13;;;4.10;;
37645;SDS011;23489;49.600;6.138;2023-12-20T06:36:48;10.88;;;4.93;;
37645;SDS011;23489;49.600;6.138;2023-12-20T06:39:13;14.30;;;4.72;;
37645;SDS011;23489;49.600;6.138;2023-12-20T06:41:39;16.20;;;4.93;;
37645;SDS011;23489;49.600;6.138;2023-12-20T06:44:05;14.50;;;4.90;;
37645;SDS011;23489;49.600;6.138;2023-12-20T06:46:31;11.80;;;4.57;;
37645;SDS011;23489;49.600;6.138;2023-12-20T06:48:56;9.88;;;5.18;;
37645;SDS011;23489;49.600;6.138;2023-12-20T06:51:22;12.40;;;5.30;;
37645;SDS011;23489;49.600;6.138;2023-12-20T06:53:50;10.48;;;5.20;;
37645;SDS011;23489;49.600;6.138;2023-12-20T06:56:17;11.38;;;5.00;;
37645;SDS011;23489;49.600;6.138;2023-12-20T06:58:42;10.27;;;5.05;;
37645;SDS011;23489;49.600;6.138;2023-12-20T07:01:14;12.60;;;5.00;;
37645;SDS011;23489;49.600;6.138;2023-12-20T07:03:40;11.55;;;5.18;;
37645;SDS011;23489;49.600;6.138;2023-12-20T07:06:06;12.27;;;5.80;;
37645;SDS011;23489;49.600;6.138;2023-12-20T07:08:32;13.73;;;5.47;;
37645;SDS011;23489;49.600;6.138;2023-12-20T07:10:58;13.00;;;5.53;;
37645;SDS011;23489;49.600;6.138;2023-12-20T07:13:24;9.15;;;5.50;;
37645;SDS011;23489;49.600;6.138;2023-12-20T07:15:50;14.10;;;5.88;;
37645;SDS011;23489;49.600;6.138;2023-12-20T07:18:15;9.50;;;5.35;;
37645;SDS011;23489;49.600;6.138;2023-12-20T07:20:41;15.52;;;6.60;;
37645;SDS011;23489;49.600;6.138;2023-12-20T07:23:08;10.52;;;5.20;;
37645;SDS011;23489;49.600;6.138;2023-12-20T07:25:34;11.50;;;5.70;;
37645;SDS011;23489;49.600;6.138;2023-12-20T07:28:00;19.83;;;6.90;;
37645;SDS011;23489;49.600;6.138;2023-12-20T07:30:26;14.23;;;6.97;;
37645;SDS011;23489;49.600;6.138;2023-12-20T07:32:51;11.95;;;6.28;;
37645;SDS011;23489;49.600;6.138;2023-12-20T07:35:18;14.23;;;5.90;;
37645;SDS011;23489;49.600;6.138;2023-12-20T07:37:43;13.48;;;6.68;;
37645;SDS011;23489;49.600;6.138;2023-12-20T07:40:09;12.57;;;6.30;;
37645;SDS011;23489;49.600;6.138;2023-12-20T07:42:35;16.55;;;6.40;;
37645;SDS011;23489;49.600;6.138;2023-12-20T07:45:01;12.15;;;6.05;;
37645;SDS011;23489;49.600;6.138;2023-12-20T07:47:26;13.45;;;6.20;;
37645;SDS011;23489;49.600;6.138;2023-12-20T07:49:52;14.02;;;6.28;;
37645;SDS011;23489;49.600;6.138;2023-12-20T07:52:18;11.55;;;6.60;;
37645;SDS011;23489;49.600;6.138;2023-12-20T07:54:44;11.93;;;5.53;;
37645;SDS011;23489;49.600;6.138;2023-12-20T07:57:10;11.68;;;5.82;;
37645;SDS011;23489;49.600;6.138;2023-12-20T07:59:36;15.43;;;6.78;;
37645;SDS011;23489;49.600;6.138;2023-12-20T08:02:02;15.48;;;6.25;;
37645;SDS011;23489;49.600;6.138;2023-12-20T08:04:28;19.15;;;5.93;;
37645;SDS011;23489;49.600;6.138;2023-12-20T08:06:53;16.88;;;8.73;;
37645;SDS011;23489;49.600;6.138;2023-12-20T08:09:19;14.52;;;5.63;;
37645;SDS011;23489;49.600;6.138;2023-12-20T08:11:48;15.20;;;5.97;;
37645;SDS011;23489;49.600;6.138;2023-12-20T08:14:13;12.85;;;5.28;;
37645;SDS011;23489;49.600;6.138;2023-12-20T08:16:40;13.32;;;5.63;;
37645;SDS011;23489;49.600;6.138;2023-12-20T08:19:05;15.13;;;5.72;;
37645;SDS011;23489;49.600;6.138;2023-12-20T08:21:31;12.32;;;5.50;;
37645;SDS011;23489;49.600;6.138;2023-12-20T08:23:57;18.33;;;5.38;;
37645;SDS011;23489;49.600;6.138;2023-12-20T08:26:22;19.15;;;7.40;;
37645;SDS011;23489;49.600;6.138;2023-12-20T08:28:49;16.17;;;6.47;;
37645;SDS011;23489;49.600;6.138;2023-12-20T08:31:15;11.20;;;5.35;;
37645;SDS011;23489;49.600;6.138;2023-12-20T08:43:30;14.18;;;6.05;;
37645;SDS011;23489;49.600;6.138;2023-12-20T08:45:56;10.52;;;5.07;;
37645;SDS011;23489;49.600;6.138;2023-12-20T08:48:22;13.10;;;5.25;;
37645;SDS011;23489;49.600;6.138;2023-12-20T08:50:48;9.13;;;4.68;;
37645;SDS011;23489;49.600;6.138;2023-12-20T08:53:17;11.13;;;4.82;;
37645;SDS011;23489;49.600;6.138;2023-12-20T08:55:44;11.65;;;4.55;;
37645;SDS011;23489;49.600;6.138;2023-12-20T08:58:09;13.35;;;5.18;;
37645;SDS011;23489;49.600;6.138;2023-12-20T09:00:35;13.23;;;4.55;;
37645;SDS011;23489;49.600;6.138;2023-12-20T09:03:01;8.57;;;3.97;;
37645;SDS011;23489;49.600;6.138;2023-12-20T09:05:27;14.52;;;4.10;;
37645;SDS011;23489;49.600;6.138;2023-12-20T09:07:53;12.23;;;4.13;;
37645;SDS011;23489;49.600;6.138;2023-12-20T09:10:19;14.85;;;4.47;;
37645;SDS011;23489;49.600;6.138;2023-12-20T09:12:50;9.73;;;3.97;;
37645;SDS011;23489;49.600;6.138;2023-12-20T09:15:16;8.02;;;3.67;;
37645;SDS011;23489;49.600;6.138;2023-12-20T09:17:42;10.45;;;3.50;;
37645;SDS011;23489;49.600;6.138;2023-12-20T09:20:09;9.43;;;3.35;;
37645;SDS011;23489;49.600;6.138;2023-12-20T09:22:35;14.23;;;3.50;;
37645;SDS011;23489;49.600;6.138;2023-12-20T09:25:00;6.50;;;2.78;;
37645;SDS011;23489;49.600;6.138;2023-12-20T09:27:29;3.38;;;2.53;;
37645;SDS011;23489;49.600;6.138;2023-12-20T09:29:55;7.15;;;2.90;;
37645;SDS011;23489;49.600;6.138;2023-12-20T09:32:20;8.98;;;2.95;;
37645;SDS011;23489;49.600;6.138;2023-12-20T09:34:47;7.07;;;3.03;;
37645;SDS011;23489;49.600;6.138;2023-12-20T09:37:13;6.85;;;3.55;;
37645;SDS011;23489;49.600;6.138;2023-12-20T09:39:38;10.35;;;3.83;;
37645;SDS011;23489;49.600;6.138;2023-12-20T09:42:04;8.23;;;3.42;;
37645;SDS011;23489;49.600;6.138;2023-12-20T09:44:31;6.45;;;2.85;;
37645;SDS011;23489;49.600;6.138;2023-12-20T09:47:05;7.63;;;3.10;;
37645;SDS011;23489;49.600;6.138;2023-12-20T09:49:32;6.85;;;3.50;;
37645;SDS011;23489;49.600;6.138;2023-12-20T09:51:58;5.00;;;3.13;;
37645;SDS011;23489;49.600;6.138;2023-12-20T09:54:25;7.63;;;3.25;;
37645;SDS011;23489;49.600;6.138;2023-12-20T09:56:53;9.88;;;4.05;;
37645;SDS011;23489;49.600;6.138;2023-12-20T09:59:19;14.43;;;2.90;;
37645;SDS011;23489;49.600;6.138;2023-12-20T10:01:45;9.38;;;3.50;;
37645;SDS011;23489;49.600;6.138;2023-12-20T10:04:12;10.77;;;3.85;;
37645;SDS011;23489;49.600;6.138;2023-12-20T10:06:41;8.50;;;3.35;;
37645;SDS011;23489;49.600;6.138;2023-12-20T10:09:08;10.48;;;3.78;;
37645;SDS011;23489;49.600;6.138;2023-12-20T10:11:38;11.93;;;3.78;;
37645;SDS011;23489;49.600;6.138;2023-12-20T10:14:04;13.55;;;3.28;;
37645;SDS011;23489;49.600;6.138;2023-12-20T10:16:31;9.35;;;3.33;;
37645;SDS011;23489;49.600;6.138;2023-12-20T10:18:58;8.23;;;3.40;;
37645;SDS011;23489;49.600;6.138;2023-12-20T10:21:25;16.05;;;4.32;;
37645;SDS011;23489;49.600;6.138;2023-12-20T10:23:52;10.43;;;3.25;;
37645;SDS011;23489;49.600;6.138;2023-12-20T10:26:21;8.77;;;3.30;;
37645;SDS011;23489;49.600;6.138;2023-12-20T10:46:08;14.55;;;4.60;;
37645;SDS011;23489;49.600;6.138;2023-12-20T10:48:33;10.48;;;3.70;;
37645;SDS011;23489;49.600;6.138;2023-12-20T10:51:00;10.02;;;3.40;;
37645;SDS011;23489;49.600;6.138;2023-12-20T10:53:26;8.32;;;3.30;;
37645;SDS011;23489;49.600;6.138;2023-12-20T10:55:53;13.27;;;3.92;;
37645;SDS011;23489;49.600;6.138;2023-12-20T10:58:22;9.77;;;3.53;;
37645;SDS011;23489;49.600;6.138;2023-12-20T11:00:49;13.88;;;3.50;;
37645;SDS011;23489;49.600;6.138;2023-12-20T11:03:19;13.98;;;3.22;;
37645;SDS011;23489;49.600;6.138;2023-12-20T11:06:24;8.27;;;2.75;;
37645;SDS011;23489;49.600;6.138;2023-12-20T11:09:07;8.88;;;3.22;;
37645;SDS011;23489;49.600;6.138;2023-12-20T11:14:13;5.88;;;2.75;;
37645;SDS011;23489;49.600;6.138;2023-12-20T11:16:42;9.85;;;3.20;;
37645;SDS011;23489;49.600;6.138;2023-12-20T11:19:08;9.07;;;2.60;;
37645;SDS011;23489;49.600;6.138;2023-12-20T11:21:36;9.70;;;2.88;;
37645;SDS011;23489;49.600;6.138;2023-12-20T11:24:02;6.78;;;2.33;;
37645;SDS011;23489;49.600;6.138;2023-12-20T11:26:30;9.20;;;2.88;;
37645;SDS011;23489;49.600;6.138;2023-12-20T11:31:57;7.63;;;3.05;;
37645;SDS011;23489;49.600;6.138;2023-12-20T11:34:32;8.35;;;3.13;;
37645;SDS011;23489;49.600;6.138;2023-12-20T11:37:00;16.80;;;3.13;;
37645;SDS011;23489;49.600;6.138;2023-12-20T11:39:28;4.57;;;2.67;;
37645;SDS011;23489;49.600;6.138;2023-12-20T11:41:56;9.23;;;3.17;;
37645;SDS011;23489;49.600;6.138;2023-12-20T11:44:22;11.38;;;3.30;;
37645;SDS011;23489;49.600;6.138;2023-12-20T11:46:50;11.02;;;3.38;;
37645;SDS011;23489;49.600;6.138;2023-12-20T11:49:16;10.35;;;2.80;;
37645;SDS011;23489;49.600;6.138;2023-12-20T11:51:41;10.02;;;3.00;;
37645;SDS011;23489;49.600;6.138;2023-12-20T11:54:07;6.80;;;3.00;;
37645;SDS011;23489;49.600;6.138;2023-12-20T11:56:35;13.23;;;3.17;;
37645;SDS011;23489;49.600;6.138;2023-12-20T11:59:01;9.20;;;3.17;;
37645;SDS011;23489;49.600;6.138;2023-12-20T12:01:27;11.50;;;3.60;;
37645;SDS011;23489;49.600;6.138;2023-12-20T12:04:02;10.55;;;2.97;;
37645;SDS011;23489;49.600;6.138;2023-12-20T12:06:31;10.77;;;3.33;;
37645;SDS011;23489;49.600;6.138;2023-12-20T12:08:57;9.20;;;3.75;;
37645;SDS011;23489;49.600;6.138;2023-12-20T12:11:23;8.88;;;3.28;;
37645;SDS011;23489;49.600;6.138;2023-12-20T12:13:49;7.22;;;3.05;;
37645;SDS011;23489;49.600;6.138;2023-12-20T12:16:17;7.15;;;3.13;;
37645;SDS011;23489;49.600;6.138;2023-12-20T12:18:45;10.88;;;3.08;;
37645;SDS011;23489;49.600;6.138;2023-12-20T12:21:18;6.47;;;3.17;;
37645;SDS011;23489;49.600;6.138;2023-12-20T12:23:45;9.95;;;3.90;;
37645;SDS011;23489;49.600;6.138;2023-12-20T12:26:11;7.75;;;3.47;;
37645;SDS011;23489;49.600;6.138;2023-12-20T12:28:39;12.32;;;3.75;;
37645;SDS011;23489;49.600;6.138;2023-12-20T12:31:08;7.85;;;3.17;;
37645;SDS011;23489;49.600;6.138;2023-12-20T12:33:37;8.88;;;3.55;;
37645;SDS011;23489;49.600;6.138;2023-12-20T12:36:03;7.88;;;2.67;;
37645;SDS011;23489;49.600;6.138;2023-12-20T12:38:32;8.45;;;3.15;;
37645;SDS011;23489;49.600;6.138;2023-12-20T12:40:59;9.52;;;3.47;;
37645;SDS011;23489;49.600;6.138;2023-12-20T12:43:26;10.65;;;3.63;;
37645;SDS011;23489;49.600;6.138;2023-12-20T12:45:51;7.90;;;3.63;;
37645;SDS011;23489;49.600;6.138;2023-12-20T12:48:17;12.52;;;3.95;;
37645;SDS011;23489;49.600;6.138;2023-12-20T12:50:43;10.98;;;3.38;;
37645;SDS011;23489;49.600;6.138;2023-12-20T12:53:10;7.88;;;3.50;;
37645;SDS011;23489;49.600;6.138;2023-12-20T12:55:36;9.95;;;3.75;;
37645;SDS011;23489;49.600;6.138;2023-12-20T12:58:01;7.85;;;3.25;;
37645;SDS011;23489;49.600;6.138;2023-12-20T13:00:27;14.52;;;3.40;;
37645;SDS011;23489;49.600;6.138;2023-12-20T13:02:53;16.67;;;3.90;;
37645;SDS011;23489;49.600;6.138;2023-12-20T13:05:18;13.52;;;3.83;;
37645;SDS011;23489;49.600;6.138;2023-12-20T13:07:44;10.63;;;3.75;;
37645;SDS011;23489;49.600;6.138;2023-12-20T13:10:12;14.52;;;4.05;;
37645;SDS011;23489;49.600;6.138;2023-12-20T13:12:41;11.98;;;3.75;;
37645;SDS011;23489;49.600;6.138;2023-12-20T13:15:07;13.48;;;4.63;;
37645;SDS011;23489;49.600;6.138;2023-12-20T13:17:34;10.32;;;3.58;;
37645;SDS011;23489;49.600;6.138;2023-12-20T13:19:59;9.15;;;3.80;;
37645;SDS011;23489;49.600;6.138;2023-12-20T13:22:25;13.38;;;4.03;;
37645;SDS011;23489;49.600;6.138;2023-12-20T13:24:50;17.08;;;4.32;;
37645;SDS011;23489;49.600;6.138;2023-12-20T13:27:16;16.75;;;3.88;;
37645;SDS011;23489;49.600;6.138;2023-12-20T13:29:42;12.55;;;3.42;;
37645;SDS011;23489;49.600;6.138;2023-12-20T13:32:08;10.23;;;3.15;;
37645;SDS011;23489;49.600;6.138;2023-12-20T13:34:33;9.48;;;3.40;;
37645;SDS011;23489;49.600;6.138;2023-12-20T13:36:59;10.40;;;3.03;;
37645;SDS011;23489;49.600;6.138;2023-12-20T13:39:24;8.85;;;3.17;;
37645;SDS011;23489;49.600;6.138;2023-12-20T13:41:50;9.10;;;3.15;;
37645;SDS011;23489;49.600;6.138;2023-12-20T13:44:16;15.63;;;3.10;;
37645;SDS011;23489;49.600;6.138;2023-12-20T13:46:41;10.60;;;3.30;;
37645;SDS011;23489;49.600;6.138;2023-12-20T13:49:07;12.23;;;3.33;;
37645;SDS011;23489;49.600;6.138;2023-12-20T13:51:33;6.40;;;2.80;;
37645;SDS011;23489;49.600;6.138;2023-12-20T13:53:58;15.43;;;3.97;;
37645;SDS011;23489;49.600;6.138;2023-12-20T13:56:25;11.35;;;3.20;;
37645;SDS011;23489;49.600;6.138;2023-12-20T13:58:50;13.45;;;3.30;;
37645;SDS011;23489;49.600;6.138;2023-12-20T14:01:16;14.27;;;3.72;;
37645;SDS011;23489;49.600;6.138;2023-12-20T14:03:42;13.05;;;3.72;;
37645;SDS011;23489;49.600;6.138;2023-12-20T14:06:08;12.35;;;2.80;;
37645;SDS011;23489;49.600;6.138;2023-12-20T14:08:33;14.27;;;3.38;;
37645;SDS011;23489;49.600;6.138;2023-12-20T14:11:01;6.22;;;2.85;;
37645;SDS011;23489;49.600;6.138;2023-12-20T14:13:27;12.02;;;3.17;;
37645;SDS011;23489;49.600;6.138;2023-12-20T14:15:52;9.98;;;3.38;;
37645;SDS011;23489;49.600;6.138;2023-12-20T14:18:19;9.50;;;3.33;;
37645;SDS011;23489;49.600;6.138;2023-12-20T14:20:45;13.23;;;3.28;;
37645;SDS011;23489;49.600;6.138;2023-12-20T14:23:12;9.48;;;2.90;;
37645;SDS011;23489;49.600;6.138;2023-12-20T14:25:40;10.60;;;3.25;;
37645;SDS011;23489;49.600;6.138;2023-12-20T14:28:06;10.35;;;3.55;;
37645;SDS011;23489;49.600;6.138;2023-12-20T14:30:32;16.27;;;3.75;;
37645;SDS011;23489;49.600;6.138;2023-12-20T14:32:58;14.73;;;3.45;;
37645;SDS011;23489;49.600;6.138;2023-12-20T14:35:24;8.65;;;3.25;;
37645;SDS011;23489;49.600;6.138;2023-12-20T14:37:49;13.95;;;3.50;;
37645;SDS011;23489;49.600;6.138;2023-12-20T14:40:15;15.90;;;3.55;;
37645;SDS011;23489;49.600;6.138;2023-12-20T14:42:44;9.23;;;2.60;;
37645;SDS011;23489;49.600;6.138;2023-12-20T14:45:11;11.30;;;3.15;;
37645;SDS011;23489;49.600;6.138;2023-12-20T14:47:38;8.02;;;3.28;;
37645;SDS011;23489;49.600;6.138;2023-12-20T14:50:04;13.45;;;3.42;;
37645;SDS011;23489;49.600;6.138;2023-12-20T14:52:31;10.27;;;2.80;;
37645;SDS011;23489;49.600;6.138;2023-12-20T14:54:59;14.15;;;3.08;;
37645;SDS011;23489;49.600;6.138;2023-12-20T14:57:25;8.63;;;2.80;;
37645;SDS011;23489;49.600;6.138;2023-12-20T14:59:51;9.43;;;2.80;;
37645;SDS011;23489;49.600;6.138;2023-12-20T15:02:17;14.00;;;3.45;;
37645;SDS011;23489;49.600;6.138;2023-12-20T15:04:42;10.05;;;3.22;;
37645;SDS011;23489;49.600;6.138;2023-12-20T15:09:34;12.65;;;3.55;;
37645;SDS011;23489;49.600;6.138;2023-12-20T15:11:59;5.20;;;2.53;;
37645;SDS011;23489;49.600;6.138;2023-12-20T15:14:25;7.72;;;2.85;;
37645;SDS011;23489;49.600;6.138;2023-12-20T15:16:51;7.45;;;3.03;;
37645;SDS011;23489;49.600;6.138;2023-12-20T15:19:17;11.82;;;3.17;;
37645;SDS011;23489;49.600;6.138;2023-12-20T15:21:43;12.13;;;2.90;;
37645;SDS011;23489;49.600;6.138;2023-12-20T15:24:09;7.20;;;2.72;;
37645;SDS011;23489;49.600;6.138;2023-12-20T15:26:40;9.82;;;3.20;;
37645;SDS011;23489;49.600;6.138;2023-12-20T15:29:07;11.93;;;3.30;;
37645;SDS011;23489;49.600;6.138;2023-12-20T15:31:34;10.00;;;3.28;;
37645;SDS011;23489;49.600;6.138;2023-12-20T15:34:02;11.93;;;3.42;;
37645;SDS011;23489;49.600;6.138;2023-12-20T15:36:28;9.95;;;2.60;;
37645;SDS011;23489;49.600;6.138;2023-12-20T15:38:53;4.90;;;2.20;;
37645;SDS011;23489;49.600;6.138;2023-12-20T15:41:19;7.57;;;2.55;;
37645;SDS011;23489;49.600;6.138;2023-12-20T15:43:46;5.35;;;2.40;;
37645;SDS011;23489;49.600;6.138;2023-12-20T15:46:12;7.53;;;2.35;;
37645;SDS011;23489;49.600;6.138;2023-12-20T15:48:38;11.57;;;2.85;;
37645;SDS011;23489;49.600;6.138;2023-12-20T15:51:07;7.30;;;2.85;;